Time;durP1;ratioP1;P1;durP2;ratioP2;P2;SDS_P1;SDS_P2;PMS_P1;PMS_P2;Temp;Humidity;BMP_temperature;BMP_pressure;BME280_temperature;BME280_humidity;BME280_pressure;Samples;Min_cycle;Max_cycle;Signal;HPM_P1;HPM_P2
2021/01/04 00:02:30;;;;;;;25.50;18.90;;;179.60;2252.80;;;;;;5053241;28;20064;-74
2021/01/04 00:05:04;;;;;;;27.10;18.95;;;179.60;2252.80;;;;;;5053219;28;20017;-75
2021/01/04 00:08:01;;;;;;;31.98;19.48;;;179.50;2252.80;;;;;;5053110;28;20048;-74
2021/01/04 00:11:05;;;;;;;28.25;18.63;;;179.50;2252.80;;;;;;5051846;28;20100;-74
2021/01/04 00:13:31;;;;;;;;;;;179.50;2252.80;;;;;;5053535;28;20528;-74
2021/01/04 00:16:03;;;;;;;31.05;19.75;;;179.40;2252.80;;;;;;5051694;28;19990;-73
2021/01/04 00:18:43;;;;;;;29.40;19.98;;;179.40;2252.80;;;;;;5053095;28;20033;-75
2021/01/04 00:21:33;;;;;;;29.27;18.40;;;179.40;2252.80;;;;;;5051757;28;20021;-72
2021/01/04 00:24:24;;;;;;;34.78;19.27;;;179.40;2252.80;;;;;;5051698;28;20029;-74
2021/01/04 00:26:52;;;;;;;28.95;18.88;;;179.40;2252.80;;;;;;5044357;28;20040;-74
2021/01/04 00:29:20;;;;;;;30.38;19.20;;;179.40;2252.80;;;;;;5052884;28;20036;-74
2021/01/04 00:31:53;;;;;;;28.90;19.35;;;179.40;2252.80;;;;;;5051559;28;20150;-73
2021/01/04 00:34:45;;;;;;;28.88;19.05;;;179.40;2252.80;;;;;;5052891;28;20021;-74
2021/01/04 00:37:44;;;;;;;27.23;18.70;;;179.40;2252.80;;;;;;5052948;28;20060;-76
2021/01/04 00:40:40;;;;;;;33.35;19.67;;;179.40;2252.80;;;;;;5051481;28;20489;-81
2021/01/04 00:43:13;;;;;;;30.08;18.25;;;179.40;2252.80;;;;;;5053118;28;20021;-76
2021/01/04 00:45:47;;;;;;;33.25;20.40;;;179.40;2252.80;;;;;;5052985;28;20032;-81
2021/01/04 00:48:22;;;;;;;27.67;19.13;;;179.40;2252.80;;;;;;5052839;28;20025;-76
2021/01/04 00:51:09;;;;;;;27.25;17.98;;;179.40;2252.80;;;;;;5051646;28;20032;-80
2021/01/04 00:53:45;;;;;;;27.40;18.33;;;179.40;2252.80;;;;;;5051534;28;20025;-79
2021/01/04 00:56:38;;;;;;;32.00;18.90;;;179.40;2252.80;;;;;;5051390;28;20131;-81
2021/01/04 00:59:04;;;;;;;28.08;19.35;;;179.50;2252.80;;;;;;5051637;28;20032;-76
2021/01/04 01:01:35;;;;;;;31.85;19.27;;;179.50;2252.80;;;;;;5051322;28;20025;-76
2021/01/04 01:04:24;;;;;;;32.80;20.77;;;179.50;2252.80;;;;;;5052442;28;20111;-76
2021/01/04 01:07:00;;;;;;;27.63;18.02;;;179.50;2252.80;;;;;;5056365;28;20017;-76
2021/01/04 01:09:30;;;;;;;32.33;17.42;;;179.50;2252.80;;;;;;5055057;28;20025;-76
2021/01/04 01:11:59;;;;;;;25.92;17.45;;;179.50;2252.80;;;;;;5055077;28;20029;-77
2021/01/04 01:14:47;;;;;;;29.23;17.85;;;179.60;2252.80;;;;;;5056096;28;20020;-81
2021/01/04 01:17:47;;;;;;;31.25;19.10;;;179.50;2252.80;;;;;;5054768;28;20037;-79
2021/01/04 01:20:17;;;;;;;29.73;17.83;;;179.50;2252.80;;;;;;5054735;28;20458;-76
2021/01/04 01:22:44;;;;;;;29.75;18.25;;;179.50;2252.80;;;;;;5054697;28;20036;-80
2021/01/04 01:25:17;;;;;;;28.58;17.48;;;179.50;2252.80;;;;;;5054744;28;20028;-77
2021/01/04 01:28:13;;;;;;;24.07;15.90;;;179.50;2252.80;;;;;;5054839;28;20028;-77
2021/01/04 01:31:03;;;;;;;27.13;16.42;;;179.60;2252.80;;;;;;5055922;28;20390;-77
2021/01/04 01:33:54;;;;;;;27.73;17.45;;;179.60;2252.80;;;;;;5054487;28;20478;-77
2021/01/04 01:36:34;;;;;;;26.45;16.35;;;179.50;2252.80;;;;;;5055737;28;20116;-77
2021/01/04 01:39:19;;;;;;;26.52;16.77;;;179.40;2252.80;;;;;;5055634;28;20025;-76
2021/01/04 01:42:18;;;;;;;26.25;14.77;;;179.40;2252.80;;;;;;5054485;28;20028;-76
2021/01/04 01:45:10;;;;;;;23.55;14.88;;;179.40;2252.80;;;;;;5054622;28;20473;-76
2021/01/04 01:47:44;;;;;;;23.73;14.45;;;179.40;2252.80;;;;;;5054576;28;20440;-77
2021/01/04 01:50:29;;;;;;;24.08;14.38;;;179.40;2252.80;;;;;;5054101;28;20366;-77
2021/01/04 01:53:11;;;;;;;22.23;14.00;;;179.40;2252.80;;;;;;5054026;28;20025;-77
2021/01/04 01:56:14;;;;;;;30.52;14.98;;;179.30;2252.80;;;;;;5055226;28;20021;-81
2021/01/04 01:58:55;;;;;;;24.35;14.43;;;179.20;2252.80;;;;;;5054031;28;20036;-76
2021/01/04 02:01:36;;;;;;;30.08;14.85;;;179.20;2252.80;;;;;;5055249;28;20021;-76
2021/01/04 02:04:39;;;;;;;22.17;13.90;;;179.30;2252.80;;;;;;5055455;28;20029;-81
2021/01/04 02:07:27;;;;;;;19.92;14.13;;;179.20;2252.80;;;;;;5054123;28;20021;-76
2021/01/04 02:10:00;;;;;;;22.58;12.88;;;179.20;2252.80;;;;;;5053959;28;20032;-76
2021/01/04 02:12:45;;;;;;;20.90;13.50;;;179.20;2252.80;;;;;;5053927;28;20055;-81
2021/01/04 02:15:13;;;;;;;22.08;12.63;;;179.20;2252.80;;;;;;5053966;28;20126;-76
2021/01/04 02:18:18;;;;;;;19.52;11.88;;;179.20;2252.80;;;;;;5055039;28;20041;-76
2021/01/04 02:20:50;;;;;;;19.63;11.00;;;179.20;2252.80;;;;;;5053861;28;20098;-80
2021/01/04 02:23:36;;;;;;;18.85;11.32;;;179.20;2252.80;;;;;;5053829;28;20029;-82
2021/01/04 02:26:10;;;;;;;18.02;11.57;;;179.20;2252.80;;;;;;5053921;28;20029;-82
2021/01/04 02:28:48;;;;;;;13.82;10.43;;;179.20;2252.80;;;;;;5053994;28;20138;-78
2021/01/04 02:31:14;;;;;;;17.65;10.88;;;179.20;2252.80;;;;;;5053659;28;20028;-75
2021/01/04 02:33:40;;;;;;;17.55;10.88;;;179.30;2252.80;;;;;;5054728;28;20025;-76
2021/01/04 02:36:06;;;;;;;16.50;10.85;;;179.30;2252.80;;;;;;5053160;28;20025;-76
2021/01/04 02:38:39;;;;;;;20.40;12.02;;;179.30;2252.80;;;;;;5054709;28;20186;-76
2021/01/04 02:41:05;;;;;;;16.50;10.85;;;179.30;2252.80;;;;;;5053355;28;20028;-75
2021/01/04 02:43:31;;;;;;;16.73;10.57;;;179.30;2252.80;;;;;;5054989;28;20033;-76
2021/01/04 02:46:06;;;;;;;14.80;11.00;;;179.20;2252.80;;;;;;5054556;28;20495;-76
2021/01/04 02:48:56;;;;;;;18.27;11.25;;;179.20;2252.80;;;;;;5054631;28;20032;-75
2021/01/04 02:51:30;;;;;;;21.83;13.45;;;179.30;2252.80;;;;;;5052814;28;20037;-75
2021/01/04 02:54:11;;;;;;;23.77;14.80;;;179.20;2252.80;;;;;;5053122;28;20529;-75
2021/01/04 02:56:58;;;;;;;24.73;14.82;;;179.20;2252.80;;;;;;5052796;28;20142;-76
2021/01/04 02:59:57;;;;;;;24.50;14.05;;;179.20;2252.80;;;;;;5053125;28;20018;-76
2021/01/04 03:02:34;;;;;;;20.27;12.45;;;179.20;2252.80;;;;;;5015625;28;20034;-76
2021/01/04 03:05:00;;;;;;;22.25;12.82;;;179.20;2252.80;;;;;;5026553;28;20092;-80
2021/01/04 03:07:30;;;;;;;20.38;12.48;;;179.30;2252.80;;;;;;5032241;28;20036;-80
2021/01/04 03:09:58;;;;;;;21.48;13.05;;;179.30;2252.80;;;;;;5015424;28;20026;-78
2021/01/04 03:12:30;;;;;;;19.65;12.93;;;179.30;2252.80;;;;;;5032341;28;20033;-75
2021/01/04 03:15:20;;;;;;;17.73;12.30;;;179.20;2252.80;;;;;;5031680;28;20022;-76
2021/01/04 03:17:46;;;;;;;18.17;11.98;;;179.30;2252.80;;;;;;5031379;28;20294;-76
2021/01/04 03:20:17;;;;;;;19.48;12.95;;;179.30;2252.80;;;;;;5031966;28;20385;-76
2021/01/04 03:22:45;;;;;;;21.50;14.18;;;179.30;2252.80;;;;;;5032065;28;20041;-76
2021/01/04 03:25:43;;;;;;;21.30;13.77;;;179.30;2252.80;;;;;;5015324;28;20029;-76
2021/01/04 03:28:21;;;;;;;24.30;13.18;;;179.30;2252.80;;;;;;5031077;28;20029;-76
2021/01/04 03:30:47;;;;;;;18.70;12.55;;;179.30;2252.80;;;;;;5014989;28;20037;-76
2021/01/04 03:33:13;;;;;;;22.92;12.93;;;179.30;2252.80;;;;;;5015051;28;20029;-76
2021/01/04 03:35:39;;;;;;;21.77;13.40;;;179.30;2252.80;;;;;;5031517;28;20182;-76
2021/01/04 03:38:05;;;;;;;21.33;13.35;;;179.40;2252.80;;;;;;5034686;28;20045;-76
2021/01/04 03:40:51;;;;;;;23.75;14.18;;;179.40;2252.80;;;;;;5052279;28;20032;-80
2021/01/04 03:43:17;;;;;;;18.00;12.05;;;179.40;2252.80;;;;;;5054051;28;20027;-79
2021/01/04 03:45:43;;;;;;;18.38;12.43;;;179.40;2252.80;;;;;;5052357;28;20031;-77
2021/01/04 03:48:10;;;;;;;17.92;12.82;;;179.40;2252.80;;;;;;5052273;28;20025;-76
2021/01/04 03:50:36;;;;;;;18.73;12.32;;;179.40;2252.80;;;;;;5052362;28;20485;-76
2021/01/04 03:53:04;;;;;;;19.17;12.93;;;179.40;2252.80;;;;;;5053592;28;20065;-76
2021/01/04 03:55:29;;;;;;;21.48;14.00;;;179.40;2252.80;;;;;;5052043;28;20060;-79
2021/01/04 03:57:55;;;;;;;20.70;13.27;;;179.50;2252.80;;;;;;5053318;28;20409;-80
2021/01/04 04:00:22;;;;;;;28.10;16.10;;;179.50;2252.80;;;;;;5052191;28;20059;-80
2021/01/04 04:02:49;;;;;;;29.77;18.27;;;179.50;2252.80;;;;;;5053364;28;20025;-76
2021/01/04 04:05:17;;;;;;;29.48;15.52;;;179.50;2252.80;;;;;;5053381;28;20025;-77
2021/01/04 04:07:44;;;;;;;26.50;16.30;;;179.50;2252.80;;;;;;5052018;28;20167;-80
2021/01/04 04:10:12;;;;;;;29.13;16.27;;;179.50;2252.80;;;;;;5053341;28;20061;-80
2021/01/04 04:12:38;;;;;;;23.60;14.68;;;179.50;2252.80;;;;;;5051913;28;20025;-76
2021/01/04 04:15:07;;;;;;;22.33;14.43;;;179.50;2252.80;;;;;;5051794;28;20384;-80
2021/01/04 04:17:33;;;;;;;18.67;13.25;;;179.50;2252.80;;;;;;5051266;28;20041;-80
2021/01/04 04:19:59;;;;;;;21.35;14.68;;;179.60;2252.80;;;;;;5052059;28;20033;-80
2021/01/04 04:22:25;;;;;;;19.98;13.30;;;179.60;2252.80;;;;;;5051632;28;20065;-76
2021/01/04 04:24:51;;;;;;;22.77;13.50;;;179.50;2252.80;;;;;;5051668;28;20025;-81
2021/01/04 04:27:17;;;;;;;23.48;14.48;;;179.50;2252.80;;;;;;5052794;28;20036;-77
2021/01/04 04:29:46;;;;;;;20.13;13.48;;;179.60;2252.80;;;;;;5051658;28;20029;-77
2021/01/04 04:32:13;;;;;;;22.77;13.75;;;179.60;2252.80;;;;;;5051770;28;20409;-80
2021/01/04 04:34:39;;;;;;;23.27;12.73;;;179.60;2252.80;;;;;;5051831;28;20056;-76
2021/01/04 04:37:07;;;;;;;27.70;14.13;;;179.60;2252.80;;;;;;5051467;28;20059;-77
2021/01/04 04:39:33;;;;;;;19.13;13.15;;;179.60;2252.80;;;;;;5053662;28;20039;-77
2021/01/04 04:42:07;;;;;;;35.05;20.48;;;179.60;2252.80;;;;;;5055437;28;20028;-77
2021/01/04 04:44:42;;;;;;;38.00;23.83;;;179.60;2252.80;;;;;;5055331;28;20025;-77
2021/01/04 04:47:17;;;;;;;31.40;20.17;;;179.60;2252.80;;;;;;5055383;28;20520;-76
2021/01/04 04:49:59;;;;;;;22.70;15.63;;;179.60;2252.80;;;;;;5055220;28;20123;-79
2021/01/04 04:52:43;;;;;;;33.42;17.08;;;179.60;2252.80;;;;;;5054977;28;20053;-81
2021/01/04 04:55:16;;;;;;;36.05;19.92;;;179.60;2252.80;;;;;;5055393;28;20112;-81
2021/01/04 04:58:36;;;;;;;41.90;22.20;;;179.60;2252.80;;;;;;5055100;28;20045;-81
2021/01/04 05:01:31;;;;;;;42.70;21.23;;;179.60;2252.80;;;;;;5032927;28;20037;-77
2021/01/04 05:04:14;;;;;;;41.10;22.88;;;179.50;2252.80;;;;;;5040176;28;20032;-81
2021/01/04 05:06:47;;;;;;;31.25;20.30;;;179.50;2252.80;;;;;;5055171;28;20056;-76
2021/01/04 05:09:19;;;;;;;37.97;25.55;;;179.50;2252.80;;;;;;5055177;28;20025;-82
2021/01/04 05:11:49;;;;;;;36.40;22.50;;;179.50;2252.80;;;;;;5055048;28;20420;-81
2021/01/04 05:14:26;;;;;;;47.15;23.95;;;179.50;2252.80;;;;;;5056062;28;20025;-77
2021/01/04 05:17:01;;;;;;;42.35;24.98;;;179.50;2252.80;;;;;;5054744;28;20163;-77
2021/01/04 05:20:00;;;;;;;43.80;24.33;;;179.50;2252.80;;;;;;5056509;28;20465;-77
2021/01/04 05:22:52;;;;;;;33.65;20.10;;;179.50;2252.80;;;;;;5054892;28;20028;-77
2021/01/04 05:25:30;;;;;;;41.17;26.10;;;179.50;2252.80;;;;;;5056353;28;20392;-80
2021/01/04 05:28:27;;;;;;;37.03;24.13;;;179.50;2252.80;;;;;;5055115;28;20071;-81
2021/01/04 05:31:20;;;;;;;39.63;24.38;;;179.50;2252.80;;;;;;5056291;28;20025;-79
2021/01/04 05:33:54;;;;;;;44.05;23.88;;;179.50;2252.80;;;;;;5054549;28;20499;-77
2021/01/04 05:36:34;;;;;;;35.50;21.13;;;179.50;2252.80;;;;;;5054465;28;20024;-80
2021/01/04 05:39:31;;;;;;;30.52;18.70;;;179.40;2252.80;;;;;;5054265;28;20485;-76
2021/01/04 05:42:24;;;;;;;32.90;19.85;;;179.40;2252.80;;;;;;5053652;28;20405;-81
2021/01/04 05:45:31;;;;;;;28.05;18.02;;;179.40;2252.80;;;;;;5055749;28;20025;-82
2021/01/04 05:48:15;;;;;;;31.52;19.63;;;179.40;2252.80;;;;;;5054561;28;20059;-81
2021/01/04 05:50:53;;;;;;;38.03;23.02;;;179.40;2252.80;;;;;;5055390;28;20100;-77
2021/01/04 05:53:19;;;;;;;49.15;29.38;;;179.40;2252.80;;;;;;5054072;28;20500;-81
2021/01/04 05:55:45;;;;;;;69.10;45.13;;;179.30;2252.80;;;;;;5054032;28;20029;-77
2021/01/04 05:58:15;;;;;;;104.40;70.32;;;179.30;2252.80;;;;;;5055410;28;20037;-77
2021/01/04 06:00:41;;;;;;;157.40;97.03;;;179.30;2252.80;;;;;;5055214;28;20063;-77
2021/01/04 06:03:18;;;;;;;168.20;105.93;;;179.30;2252.80;;;;;;5055369;28;20057;-77
2021/01/04 06:05:44;;;;;;;116.35;69.32;;;179.30;2252.80;;;;;;5055381;28;20014;-81
2021/01/04 06:08:28;;;;;;;59.97;36.33;;;179.30;2252.80;;;;;;5053816;28;20025;-76
2021/01/04 06:11:04;;;;;;;70.57;42.30;;;179.20;2252.80;;;;;;5055270;28;20380;-76
2021/01/04 06:13:36;;;;;;;56.87;33.93;;;179.20;2252.80;;;;;;5053890;28;20083;-81
2021/01/04 06:16:11;;;;;;;62.80;38.83;;;179.40;2252.80;;;;;;5054134;28;20029;-82
2021/01/04 06:18:48;;;;;;;92.53;53.22;;;179.20;2252.80;;;;;;5055248;28;20029;-76
2021/01/04 06:21:23;;;;;;;81.10;46.90;;;179.20;2252.80;;;;;;5053947;28;20025;-76
2021/01/04 06:23:52;;;;;;;96.72;53.90;;;179.20;2252.80;;;;;;5055268;28;20052;-75
2021/01/04 06:26:22;;;;;;;153.05;85.82;;;179.30;2252.80;;;;;;5055012;28;20029;-79
2021/01/04 06:28:53;;;;;;;125.47;70.55;;;179.30;2252.80;;;;;;5055004;28;20053;-76
2021/01/04 06:31:32;;;;;;;106.97;64.27;;;179.30;2252.80;;;;;;5053878;28;20108;-77
2021/01/04 06:34:00;;;;;;;79.80;50.87;;;179.30;2252.80;;;;;;5053544;28;20025;-77
2021/01/04 06:36:28;;;;;;;68.10;45.05;;;179.30;2252.80;;;;;;5053524;28;20032;-81
2021/01/04 06:39:06;;;;;;;71.22;42.83;;;179.30;2252.80;;;;;;5053220;28;20029;-80
2021/01/04 06:41:33;;;;;;;79.97;47.80;;;179.30;2252.80;;;;;;5053473;28;20051;-76
2021/01/04 06:44:28;;;;;;;86.47;51.42;;;179.20;2252.80;;;;;;5053510;28;20071;-80
2021/01/04 06:47:34;;;;;;;92.72;49.83;;;179.20;2252.80;;;;;;5054476;28;20070;-77
2021/01/04 06:50:06;;;;;;;91.10;45.95;;;179.20;2252.80;;;;;;5054514;28;20021;-76
2021/01/04 06:52:58;;;;;;;102.85;50.47;;;179.20;2252.80;;;;;;5053256;28;20032;-82
2021/01/04 06:55:49;;;;;;;106.32;54.85;;;179.20;2252.80;;;;;;5053232;28;20029;-76
2021/01/04 06:58:29;;;;;;;101.82;53.95;;;179.30;2252.80;;;;;;5053050;28;20485;-76
2021/01/04 07:01:25;;;;;;;102.23;51.60;;;179.30;2252.80;;;;;;5052909;28;20029;-81
2021/01/04 07:04:06;;;;;;;108.43;55.47;;;179.30;2252.80;;;;;;5053284;28;20040;-76
2021/01/04 07:06:58;;;;;;;105.75;56.05;;;179.30;2252.80;;;;;;5053075;28;20022;-77
2021/01/04 07:09:59;;;;;;;101.72;56.47;;;179.30;2252.80;;;;;;5052824;28;20025;-81
2021/01/04 07:12:35;;;;;;;118.72;71.72;;;179.30;2252.80;;;;;;5054009;28;20021;-76
2021/01/04 07:15:14;;;;;;;238.20;115.20;;;179.30;2252.80;;;;;;5053106;28;20531;-77
2021/01/04 07:18:05;;;;;;;164.38;82.13;;;179.30;2252.80;;;;;;5054015;28;20033;-76
2021/01/04 07:21:01;;;;;;;125.32;64.20;;;179.30;2252.80;;;;;;5053917;28;20021;-76
2021/01/04 07:23:48;;;;;;;122.70;65.15;;;179.30;2252.80;;;;;;5053887;28;20028;-83
2021/01/04 07:26:33;;;;;;;152.40;79.28;;;179.30;2252.80;;;;;;5052716;28;20108;-77
2021/01/04 07:29:19;;;;;;;143.15;80.53;;;179.30;2252.80;;;;;;5052668;28;20112;-77
2021/01/04 07:32:24;;;;;;;125.85;71.85;;;179.30;2252.80;;;;;;5053712;28;20067;-76
2021/01/04 07:35:03;;;;;;;120.65;68.97;;;179.20;2252.80;;;;;;5052414;28;20477;-76
2021/01/04 07:37:48;;;;;;;141.88;84.78;;;179.20;2252.80;;;;;;5052361;28;20044;-76
2021/01/04 07:40:36;;;;;;;90.80;55.25;;;179.20;2252.80;;;;;;5052459;28;20362;-76
2021/01/04 07:43:14;;;;;;;84.03;54.92;;;179.20;2252.80;;;;;;5052443;28;20040;-76
2021/01/04 07:45:57;;;;;;;68.22;43.80;;;179.30;2252.80;;;;;;5053572;28;20025;-76
2021/01/04 07:48:50;;;;;;;66.20;41.17;;;179.30;2252.80;;;;;;5053551;28;20033;-76
2021/01/04 07:51:31;;;;;;;207.50;89.57;;;179.40;2252.80;;;;;;5052222;28;20067;-76
2021/01/04 07:54:12;;;;;;;197.68;83.00;;;179.40;2252.80;;;;;;5053846;28;20032;-76
2021/01/04 07:56:47;;;;;;;156.13;78.18;;;179.40;2252.80;;;;;;5051808;28;20049;-76
2021/01/04 07:59:34;;;;;;;158.85;80.97;;;179.40;2252.80;;;;;;5053596;28;20079;-82
2021/01/04 08:02:21;;;;;;;148.50;78.70;;;179.50;2252.80;;;;;;5052322;28;20078;-82
2021/01/04 08:05:12;;;;;;;187.95;90.40;;;179.60;2252.80;;;;;;5052192;28;20056;-82
2021/01/04 08:08:15;;;;;;;184.95;89.60;;;179.70;2252.80;;;;;;5053462;28;20029;-82
2021/01/04 08:10:44;;;;;;;190.02;98.78;;;179.70;2252.80;;;;;;5052018;28;20029;-77
2021/01/04 08:13:23;;;;;;;185.30;105.40;;;179.70;2252.80;;;;;;5054952;28;20120;-82
2021/01/04 08:15:57;;;;;;;159.88;89.35;;;179.80;2252.80;;;;;;5057402;28;20024;-82
2021/01/04 08:18:23;;;;;;;;;;;179.90;2252.80;;;;;;5056529;28;20037;-76
2021/01/04 08:20:59;;;;;;;69.32;41.38;;;179.90;2252.80;;;;;;5057387;28;19991;-78
2021/01/04 08:23:30;;;;;;;61.80;37.55;;;180.10;2252.80;;;;;;5056221;28;20021;-76
2021/01/04 08:26:37;;;;;;;61.20;36.47;;;180.10;2252.80;;;;;;5055876;28;20020;-76
2021/01/04 08:29:21;;;;;;;82.95;47.58;;;204.80;2252.80;;;;;;5055655;28;20037;-76
2021/01/04 08:32:17;;;;;;;85.32;61.05;;;204.90;2252.80;;;;;;5055548;28;20024;-75
2021/01/04 08:34:45;;;;;;;65.32;39.83;;;204.90;2252.80;;;;;;5080092;28;20041;-75
2021/01/04 08:37:16;;;;;;;59.58;34.70;;;205.10;2252.80;;;;;;5056625;28;20025;-75
2021/01/04 08:39:49;;;;;;;53.15;28.77;;;205.10;2252.80;;;;;;5056918;28;20021;-75
2021/01/04 08:42:20;;;;;;;58.37;31.43;;;205.20;2227.20;;;;;;5055794;28;20035;-77
2021/01/04 08:44:55;;;;;;;66.03;38.83;;;205.30;2227.20;;;;;;5055611;28;20254;-78
2021/01/04 08:47:55;;;;;;;76.93;41.85;;;205.40;2227.20;;;;;;5055484;28;20028;-76
2021/01/04 08:50:36;;;;;;;41.97;26.48;;;205.50;2227.20;;;;;;5050087;28;20041;-77
2021/01/04 08:53:10;;;;;;;53.38;33.35;;;205.60;2227.20;;;;;;5055064;28;20025;-77
2021/01/04 08:55:36;;;;;;;83.20;47.42;;;205.70;2227.20;;;;;;5055998;28;20021;-77
2021/01/04 08:58:14;;;;;;;89.60;49.42;;;205.70;2201.60;;;;;;5054627;28;20044;-77
2021/01/04 09:00:40;;;;;;;93.35;51.38;;;230.40;2201.60;;;;;;5055029;28;20124;-77
2021/01/04 09:03:19;;;;;;;121.80;64.45;;;230.40;2201.60;;;;;;5055978;28;20099;-77
2021/01/04 09:05:45;;;;;;;143.82;79.15;;;230.50;2201.60;;;;;;5056090;28;20108;-79
2021/01/04 09:08:15;;;;;;;115.13;60.28;;;230.50;2201.60;;;;;;5054640;28;20108;-78
2021/01/04 09:10:50;;;;;;;91.40;51.47;;;230.60;2201.60;;;;;;5054780;28;20047;-78
2021/01/04 09:13:21;;;;;;;71.90;41.95;;;230.70;2201.60;;;;;;5054415;28;20017;-78
2021/01/04 09:15:49;;;;;;;48.78;30.10;;;230.70;2176.00;;;;;;5074416;28;20031;-78
2021/01/04 09:19:14;;;;;;;54.90;30.80;;;230.80;2176.00;;;;;;5055424;28;20033;-78
2021/01/04 09:21:42;;;;;;;57.10;33.35;;;230.90;2176.00;;;;;;5014728;28;20502;-78
2021/01/04 09:24:28;;;;;;;59.53;37.75;;;231.00;2150.40;;;;;;5033297;28;20030;-78
2021/01/04 09:26:59;;;;;;;39.05;25.35;;;231.10;2150.40;;;;;;5020209;28;20040;-79
2021/01/04 09:29:38;;;;;;;77.47;40.97;;;231.20;2150.40;;;;;;5017420;28;20112;-77
2021/01/04 09:32:11;;;;;;;64.20;35.90;;;231.30;2150.40;;;;;;5017346;28;20039;-78
2021/01/04 09:34:37;;;;;;;50.08;30.38;;;256.10;2124.80;;;;;;5016772;28;20112;-77
2021/01/04 09:37:11;;;;;;;41.80;24.40;;;256.30;2124.80;;;;;;5017218;28;20283;-77
2021/01/04 09:39:40;;;;;;;41.75;26.13;;;256.40;2124.80;;;;;;5033735;28;20545;-77
2021/01/04 09:42:10;;;;;;;27.60;19.63;;;256.50;2099.20;;;;;;5032892;28;20140;-79
2021/01/04 09:44:36;;;;;;;34.53;22.55;;;256.60;2099.20;;;;;;5033522;28;20415;-78
2021/01/04 09:47:10;;;;;;;28.27;17.73;;;256.80;2073.60;;;;;;5016591;28;20116;-79
2021/01/04 09:49:44;;;;;;;27.98;17.42;;;256.90;2073.60;;;;;;5016914;28;20079;-79
2021/01/04 09:52:33;;;;;;;28.25;18.63;;;256.90;2048.00;;;;;;5024922;28;20095;-78
2021/01/04 09:55:04;;;;;;;26.80;15.20;;;281.60;2073.60;;;;;;5050621;28;20034;-78
2021/01/04 09:57:32;;;;;;;27.00;18.48;;;281.80;2048.00;;;;;;5053131;28;20048;-78
2021/01/04 09:59:58;;;;;;;29.25;17.75;;;282.00;2048.00;;;;;;5054814;28;20016;-77
2021/01/04 10:02:28;;;;;;;23.75;14.25;;;282.10;2048.00;;;;;;5053563;28;20079;-79
2021/01/04 10:05:04;;;;;;;20.58;13.80;;;282.20;2022.40;;;;;;5053718;28;20112;-79
2021/01/04 10:07:33;;;;;;;29.77;17.23;;;282.20;2022.40;;;;;;5054706;28;20533;-77
2021/01/04 10:09:59;;;;;;;43.85;26.02;;;282.20;2022.40;;;;;;5053461;28;20017;-78
2021/01/04 10:12:27;;;;;;;35.95;20.58;;;282.20;2022.40;;;;;;5054571;28;20032;-78
2021/01/04 10:14:56;;;;;;;26.48;18.27;;;282.10;2022.40;;;;;;5053090;28;20029;-78
2021/01/04 10:17:37;;;;;;;38.58;24.10;;;282.20;1996.80;;;;;;5054574;28;20485;-78
2021/01/04 10:20:16;;;;;;;33.85;21.02;;;282.30;1996.80;;;;;;5055003;28;20112;-76
2021/01/04 10:22:49;;;;;;;28.02;17.30;;;307.20;2022.40;;;;;;5053248;28;20033;-78
2021/01/04 10:25:35;;;;;;;28.10;17.25;;;307.20;1971.20;;;;;;5048065;28;20496;-78
2021/01/04 10:28:02;;;;;;;26.13;15.43;;;282.50;1971.20;;;;;;5053075;28;20056;-78
2021/01/04 10:30:29;;;;;;;27.88;16.75;;;282.40;1971.20;;;;;;5053334;28;20118;-77
2021/01/04 10:33:18;;;;;;;33.05;20.63;;;282.40;1971.20;;;;;;5053375;28;20036;-77
2021/01/04 10:35:44;;;;;;;31.70;19.13;;;282.30;1996.80;;;;;;5054105;28;20021;-78
2021/01/04 10:38:18;;;;;;;34.85;19.45;;;282.40;1996.80;;;;;;5053876;28;20056;-78
2021/01/04 10:40:49;;;;;;;77.80;50.63;;;282.40;1996.80;;;;;;5087468;28;20021;-76
2021/01/04 10:43:21;;;;;;;39.80;26.20;;;282.30;1996.80;;;;;;5053455;28;20021;-76
2021/01/04 10:45:47;;;;;;;37.40;23.45;;;282.30;1996.80;;;;;;5086302;28;20048;-77
2021/01/04 10:48:17;;;;;;;38.92;22.02;;;282.20;1996.80;;;;;;5044785;28;20033;-76
2021/01/04 10:50:46;;;;;;;46.50;28.88;;;282.20;2022.40;;;;;;5054370;28;20485;-79
2021/01/04 10:53:34;;;;;;;44.20;28.73;;;282.10;2022.40;;;;;;5052992;28;20358;-78
2021/01/04 10:56:09;;;;;;;42.30;26.77;;;282.10;2022.40;;;;;;5048324;28;20123;-79
2021/01/04 10:58:47;;;;;;;48.38;32.47;;;282.00;2022.40;;;;;;5053511;28;20072;-78
2021/01/04 11:01:21;;;;;;;62.63;39.08;;;282.00;2048.00;;;;;;5053340;28;20520;-78
2021/01/04 11:03:53;;;;;;;59.47;35.00;;;282.00;2048.00;;;;;;5054488;28;20029;-79
2021/01/04 11:06:34;;;;;;;56.65;35.25;;;282.00;2048.00;;;;;;5053158;28;20032;-78
2021/01/04 11:09:25;;;;;;;69.70;40.88;;;282.00;2048.00;;;;;;5052656;28;20115;-78
2021/01/04 11:12:14;;;;;;;65.18;40.42;;;282.00;2048.00;;;;;;5051944;28;20029;-79
2021/01/04 11:14:52;;;;;;;60.15;35.88;;;282.00;2048.00;;;;;;5050087;28;20104;-78
2021/01/04 11:17:22;;;;;;;53.63;33.35;;;282.00;2048.00;;;;;;5051609;28;20060;-79
2021/01/04 11:19:48;;;;;;;39.15;25.40;;;282.10;2048.00;;;;;;5051710;28;20025;-78
2021/01/04 11:22:17;;;;;;;34.42;22.35;;;282.10;2048.00;;;;;;5052765;28;20032;-79
2021/01/04 11:24:43;;;;;;;30.60;19.10;;;282.10;2048.00;;;;;;5052918;28;20056;-79
2021/01/04 11:27:09;;;;;;;31.23;20.40;;;282.00;2048.00;;;;;;5051659;28;20484;-81
2021/01/04 11:29:39;;;;;;;25.23;17.02;;;282.10;2048.00;;;;;;5051937;28;20024;-79
2021/01/04 11:32:06;;;;;;;34.60;18.23;;;282.10;2048.00;;;;;;5053255;28;20025;-78
2021/01/04 11:34:32;;;;;;;25.40;17.48;;;282.10;2048.00;;;;;;5050989;28;20032;-79
2021/01/04 11:36:58;;;;;;;35.25;24.83;;;282.10;2048.00;;;;;;5052291;28;20668;-78
2021/01/04 11:39:25;;;;;;;39.65;24.88;;;282.10;2048.00;;;;;;5051288;28;20025;-79
2021/01/04 11:41:51;;;;;;;25.20;17.02;;;282.20;2048.00;;;;;;5052392;28;20013;-77
2021/01/04 11:44:17;;;;;;;22.02;16.85;;;282.20;2048.00;;;;;;5051396;28;20032;-78
2021/01/04 11:46:45;;;;;;;34.80;21.42;;;282.20;2048.00;;;;;;5051067;28;20370;-77
2021/01/04 11:49:11;;;;;;;44.53;26.45;;;282.20;2048.00;;;;;;5052749;28;20017;-77
2021/01/04 11:51:37;;;;;;;49.97;26.00;;;282.30;2048.00;;;;;;5052143;28;20025;-78
2021/01/04 11:54:04;;;;;;;27.88;18.15;;;282.20;2048.00;;;;;;5052010;28;20493;-78
2021/01/04 11:56:31;;;;;;;36.08;22.35;;;282.20;2048.00;;;;;;5051604;28;20056;-78
2021/01/04 11:58:59;;;;;;;43.15;26.33;;;282.20;2048.00;;;;;;5051823;28;20060;-73
2021/01/04 12:01:25;;;;;;;81.55;46.67;;;282.20;2048.00;;;;;;5051618;28;20458;-75
2021/01/04 12:03:52;;;;;;;33.53;22.00;;;282.20;2048.00;;;;;;5053221;28;20099;-72
2021/01/04 12:06:19;;;;;;;26.55;17.00;;;282.20;2048.00;;;;;;5051799;28;20024;-73
2021/01/04 12:08:45;;;;;;;21.02;14.68;;;282.10;2073.60;;;;;;5051823;28;20029;-76
2021/01/04 12:11:11;;;;;;;26.17;17.00;;;282.10;2073.60;;;;;;5053067;28;20029;-72
2021/01/04 12:13:37;;;;;;;33.28;21.67;;;282.10;2073.60;;;;;;5052989;28;20029;-72
2021/01/04 12:16:03;;;;;;;33.42;19.98;;;282.00;2073.60;;;;;;5053049;28;20374;-80
2021/01/04 12:18:29;;;;;;;33.22;21.88;;;282.00;2073.60;;;;;;5052410;28;20045;-74
2021/01/04 12:20:54;;;;;;;37.47;21.83;;;282.00;2073.60;;;;;;5052966;28;20159;-72
2021/01/04 12:23:20;;;;;;;61.13;33.65;;;281.80;2073.60;;;;;;5051868;28;20439;-72
2021/01/04 12:25:46;;;;;;;51.83;31.33;;;281.80;2099.20;;;;;;5050725;28;20029;-73
2021/01/04 12:28:12;;;;;;;55.17;31.48;;;281.80;2099.20;;;;;;5049155;28;20025;-72
2021/01/04 12:30:38;;;;;;;56.47;33.28;;;281.70;2099.20;;;;;;5049445;28;20469;-72
2021/01/04 12:33:03;;;;;;;54.92;32.97;;;281.70;2124.80;;;;;;5049443;28;20029;-72
2021/01/04 12:35:29;;;;;;;64.78;37.38;;;281.60;2124.80;;;;;;5048258;28;20021;-72
2021/01/04 12:37:55;;;;;;;57.38;36.13;;;256.90;2124.80;;;;;;5050556;28;20032;-72
2021/01/04 12:40:29;;;;;;;42.22;27.70;;;256.80;2124.80;;;;;;5051136;28;20048;-72
2021/01/04 12:42:57;;;;;;;;;;;256.80;2124.80;;;;;;5051471;28;20031;-72
2021/01/04 12:45:26;;;;;;;50.38;33.25;;;256.70;2124.80;;;;;;5051465;28;19916;-72